McKnightstown, Pennsylvania
Current Conditions -  °F | °C
As of 7:53 PM on Saturday 22 Nov 2014 (Local Time) from KRYT Reporting Station
Clear Clear  
Wind Chill: 36°   Ceiling: Unl
Heat Index: 36°   Visibility: 10mi
Dew Point: 18°   Wind: 0mph
Humidity: 48%   Direction: NA
Pressure: 30.21"   Gusts: NA
Location:  39.87°N, 77.33°W
Report Text: KRYT 230053Z AUTO 00000KT 10SM CLR 02/M08 A3021 RMK AO2 SLP247 T00221078 $
Loading
Personal Weather Stations






























Interactive Weather Map New forecast layout! Learn more

10-Day Weather Forecast

Advertisements
Track Severe Weather on mobile